createdAt,value
2023-03-31T00:00:58.045Z,98718.09
2023-03-31T00:02:01.949Z,98709.66
2023-03-31T00:03:10.116Z,98711.38
2023-03-31T00:04:13.612Z,98709.59
2023-03-31T00:05:18.277Z,98711.19
2023-03-31T00:06:20.698Z,98709.88
2023-03-31T00:07:23.093Z,98701.00
2023-03-31T00:08:35.442Z,98701.94
2023-03-31T00:09:37.636Z,98701.69
2023-03-31T00:10:45.598Z,98701.38
2023-03-31T00:11:51.825Z,98696.72
2023-03-31T00:12:54.062Z,98702.75
2023-03-31T00:13:56.279Z,98695.47
2023-03-31T00:14:58.489Z,98701.72
2023-03-31T00:16:02.488Z,98689.19
2023-03-31T00:17:04.809Z,98691.72
2023-03-31T00:18:07.156Z,98687.56
2023-03-31T00:19:17.835Z,98681.72
2023-03-31T00:20:20.538Z,98687.56
2023-03-31T00:21:33.877Z,98678.91
2023-03-31T00:22:38.489Z,98665.81
2023-03-31T00:23:41.659Z,98664.88
2023-03-31T00:24:43.858Z,98669.97
2023-03-31T00:25:46.114Z,98669.81
2023-03-31T00:26:48.281Z,98658.31
2023-03-31T00:27:50.573Z,98651.88
2023-03-31T00:28:53.473Z,98661.28
2023-03-31T00:29:55.605Z,98652.19
2023-03-31T00:31:02.695Z,98658.31
2023-03-31T00:32:04.967Z,98661.16
2023-03-31T00:33:07.200Z,98652.00
2023-03-31T00:34:09.439Z,98657.94
2023-03-31T00:35:11.853Z,98649.13
2023-03-31T00:36:21.120Z,98654.38
2023-03-31T00:37:24.776Z,98656.69
2023-03-31T00:38:28.984Z,98654.91
2023-03-31T00:39:33.870Z,98651.25
2023-03-31T00:40:36.995Z,98645.78
2023-03-31T00:41:39.455Z,98637.81
2023-03-31T00:42:43.145Z,98639.56
2023-03-31T00:44:14.989Z,98646.28
2023-03-31T00:45:17.283Z,98646.13
2023-03-31T00:46:27.405Z,98636.13
2023-03-31T00:47:30.152Z,98636.84
2023-03-31T00:48:34.699Z,98634.72
2023-03-31T00:49:40.777Z,98636.16
2023-03-31T00:50:51.288Z,98639.88
2023-03-31T00:51:56.992Z,98635.22
2023-03-31T00:53:05.977Z,98632.41
2023-03-31T00:54:08.380Z,98631.16
2023-03-31T00:55:16.950Z,98636.34
2023-03-31T00:56:19.167Z,98638.69
2023-03-31T00:57:23.603Z,98636.41
2023-03-31T00:58:28.849Z,98627.59
2023-03-31T00:59:34.890Z,98629.63
2023-03-31T01:00:37.254Z,98630.00
2023-03-31T01:01:42.943Z,98629.66
2023-03-31T01:02:58.707Z,98632.63
2023-03-31T01:04:02.227Z,98627.06
2023-03-31T01:05:05.304Z,98618.34
2023-03-31T01:06:10.457Z,98626.06
2023-03-31T01:07:40.441Z,98634.00
2023-03-31T01:08:44.302Z,98628.72
2023-03-31T01:09:47.918Z,98629.81
2023-03-31T01:10:56.738Z,98631.16
2023-03-31T01:11:59.116Z,98638.44
2023-03-31T01:13:01.558Z,98641.06
2023-03-31T01:14:05.848Z,98644.84
2023-03-31T01:15:09.502Z,98651.41
2023-03-31T01:16:12.030Z,98652.94
2023-03-31T01:17:19.037Z,98650.09
2023-03-31T01:18:22.408Z,98655.41
2023-03-31T01:19:36.405Z,98644.78
2023-03-31T01:21:18.538Z,98652.09
2023-03-31T01:22:54.370Z,98634.69
2023-03-31T01:24:17.873Z,98622.50
2023-03-31T01:25:43.417Z,98599.88
2023-03-31T01:27:24.770Z,98590.66
2023-03-31T01:29:08.865Z,98581.06
2023-03-31T01:30:25.586Z,98602.19
2023-03-31T01:32:24.020Z,98586.81
2023-03-31T01:33:57.197Z,98575.91
2023-03-31T01:35:23.345Z,98583.69
2023-03-31T01:36:57.844Z,98588.88
2023-03-31T01:38:31.376Z,98584.97
2023-03-31T01:39:52.085Z,98593.44
2023-03-31T01:41:22.599Z,98588.25
2023-03-31T01:42:48.270Z,98576.06
2023-03-31T01:44:17.545Z,98586.00
2023-03-31T01:45:50.631Z,98576.31
2023-03-31T01:47:14.262Z,98572.34
2023-03-31T01:48:44.482Z,98574.63
2023-03-31T01:50:04.994Z,98571.06
2023-03-31T01:51:13.849Z,98570.22
2023-03-31T01:52:20.903Z,98573.09
2023-03-31T01:53:30.074Z,98567.84
2023-03-31T01:54:51.985Z,98561.50
2023-03-31T01:56:37.610Z,98574.13
2023-03-31T01:57:54.211Z,98567.78
2023-03-31T01:59:08.220Z,98567.25
2023-03-31T02:02:13.757Z,98574.91
2023-03-31T02:03:22.277Z,98573.09
2023-03-31T02:04:31.504Z,98563.53
2023-03-31T02:05:41.846Z,98558.94
2023-03-31T02:06:49.979Z,98564.03
2023-03-31T02:07:59.357Z,98553.38
2023-03-31T02:09:06.443Z,98556.22
2023-03-31T02:10:12.513Z,98553.53
2023-03-31T02:11:15.439Z,98552.66
2023-03-31T02:12:20.121Z,98544.78
2023-03-31T02:13:26.844Z,98540.63
2023-03-31T02:14:33.632Z,98538.72
2023-03-31T02:15:40.281Z,98543.38
2023-03-31T02:16:47.746Z,98531.16
2023-03-31T02:17:55.501Z,98537.84
2023-03-31T02:19:09.485Z,98529.13
2023-03-31T02:20:15.841Z,98514.63
2023-03-31T02:21:19.321Z,98525.00
2023-03-31T02:22:24.010Z,98523.88
2023-03-31T02:23:31.645Z,98518.44
2023-03-31T02:24:36.493Z,98506.16
2023-03-31T02:25:46.349Z,98504.72
2023-03-31T02:26:54.315Z,98519.91
2023-03-31T02:28:00.878Z,98500.75
2023-03-31T02:29:03.356Z,98495.16
2023-03-31T02:30:07.110Z,98496.75
2023-03-31T02:31:43.319Z,98499.63
2023-03-31T02:32:47.081Z,98487.84
2023-03-31T02:33:51.798Z,98489.63
2023-03-31T02:34:55.886Z,98490.00
2023-03-31T02:36:00.069Z,98484.72
2023-03-31T02:37:02.365Z,98485.84
2023-03-31T02:38:06.663Z,98477.59
2023-03-31T02:39:13.003Z,98467.03
2023-03-31T02:40:21.706Z,98467.91
2023-03-31T02:41:26.238Z,98464.34
2023-03-31T02:42:28.949Z,98452.56
2023-03-31T02:43:31.171Z,98449.53
2023-03-31T02:44:35.070Z,98451.38
2023-03-31T02:45:41.747Z,98439.09
2023-03-31T02:46:45.705Z,98433.75
2023-03-31T02:47:47.998Z,98430.78
2023-03-31T02:48:54.023Z,98430.19
2023-03-31T02:49:59.746Z,98422.47
2023-03-31T02:51:08.716Z,98409.69
2023-03-31T02:52:19.442Z,98406.06
2023-03-31T02:53:29.531Z,98413.66
2023-03-31T02:54:52.536Z,98399.72
2023-03-31T02:56:23.176Z,98399.72
2023-03-31T02:57:44.721Z,98386.41
2023-03-31T02:59:16.561Z,98387.44
2023-03-31T03:00:41.609Z,98374.97
2023-03-31T03:02:05.551Z,98372.53
2023-03-31T03:03:29.275Z,98376.38
2023-03-31T03:05:03.281Z,98364.66
2023-03-31T03:06:18.842Z,98362.88
2023-03-31T03:07:48.877Z,98354.34
2023-03-31T03:09:03.489Z,98354.84
2023-03-31T03:10:16.313Z,98348.84
2023-03-31T03:11:29.088Z,98345.38
2023-03-31T03:12:49.803Z,98343.00
2023-03-31T03:14:07.749Z,98344.84
2023-03-31T03:15:28.147Z,98343.81
2023-03-31T03:16:36.804Z,98341.56
2023-03-31T03:17:45.355Z,98331.97
2023-03-31T03:19:02.334Z,98336.56
2023-03-31T03:20:09.813Z,98331.81
2023-03-31T03:21:12.051Z,98333.25
2023-03-31T03:22:14.205Z,98325.53
2023-03-31T03:23:17.807Z,98323.69
2023-03-31T03:24:22.620Z,98322.25
2023-03-31T03:25:25.607Z,98324.38
2023-03-31T03:26:28.193Z,98316.94
2023-03-31T03:27:31.859Z,98309.66
2023-03-31T03:28:34.030Z,98309.66
2023-03-31T03:29:36.182Z,98313.63
2023-03-31T03:30:38.993Z,98316.50
2023-03-31T03:31:42.182Z,98311.88
2023-03-31T03:32:44.355Z,98308.06
2023-03-31T03:33:46.764Z,98304.41
2023-03-31T03:34:49.042Z,98294.94
2023-03-31T03:35:51.751Z,98292.03
2023-03-31T03:36:54.006Z,98289.09
2023-03-31T03:37:56.204Z,98290.28
2023-03-31T03:38:58.503Z,98288.91
2023-03-31T03:40:00.798Z,98287.53
2023-03-31T03:41:03.135Z,98285.88
2023-03-31T03:42:05.738Z,98287.78
2023-03-31T03:43:07.955Z,98278.84
2023-03-31T03:44:10.192Z,98273.75
2023-03-31T03:45:12.354Z,98273.97
2023-03-31T03:46:17.202Z,98266.38
2023-03-31T03:47:19.401Z,98262.34
2023-03-31T03:48:21.626Z,98254.84
2023-03-31T03:49:23.912Z,98249.44
2023-03-31T03:50:26.167Z,98235.00
2023-03-31T03:51:28.466Z,98212.56
2023-03-31T03:52:30.734Z,98212.50
2023-03-31T03:53:33.138Z,98211.66
2023-03-31T03:54:35.692Z,98221.13
2023-03-31T03:55:37.974Z,98219.84
2023-03-31T03:56:40.516Z,98220.53
2023-03-31T03:57:42.722Z,98208.53
2023-03-31T03:58:44.869Z,98207.69
2023-03-31T03:59:47.300Z,98209.63
2023-03-31T04:00:49.485Z,98217.69
2023-03-31T04:01:52.646Z,98226.03
2023-03-31T04:02:54.890Z,98220.88
2023-03-31T04:03:57.218Z,98225.88
2023-03-31T04:04:59.426Z,98224.16
2023-03-31T04:06:01.677Z,98225.88
2023-03-31T04:07:03.893Z,98217.66
2023-03-31T04:08:08.432Z,98225.28
2023-03-31T04:09:11.244Z,98234.16
2023-03-31T04:10:13.517Z,98228.06
2023-03-31T04:11:19.070Z,98237.88
2023-03-31T04:12:21.573Z,98236.78
2023-03-31T04:13:23.888Z,98247.16
2023-03-31T04:14:26.314Z,98253.00
2023-03-31T04:15:28.595Z,98256.13
2023-03-31T04:16:32.366Z,98245.75
2023-03-31T04:17:34.960Z,98244.31
2023-03-31T04:18:42.703Z,98248.38
2023-03-31T04:19:50.625Z,98234.50
2023-03-31T04:21:05.771Z,98234.75
2023-03-31T04:22:11.606Z,98235.16
2023-03-31T04:23:14.990Z,98235.16
2023-03-31T04:24:21.711Z,98227.69
2023-03-31T04:25:24.154Z,98237.78
2023-03-31T04:26:31.450Z,98232.78
2023-03-31T04:27:35.008Z,98226.88
2023-03-31T04:28:38.446Z,98213.59
2023-03-31T04:29:40.637Z,98212.91
2023-03-31T04:30:43.393Z,98212.25
2023-03-31T04:31:45.763Z,98206.72
2023-03-31T04:32:55.387Z,98191.53
2023-03-31T04:34:06.664Z,98191.09
2023-03-31T04:35:09.061Z,98196.69
2023-03-31T04:36:17.730Z,98199.06
2023-03-31T04:37:20.056Z,98190.25
2023-03-31T04:38:23.954Z,98183.31
2023-03-31T04:39:30.704Z,98182.00
2023-03-31T04:40:35.222Z,98183.13
2023-03-31T04:41:37.375Z,98178.81
2023-03-31T04:42:39.602Z,98182.44
2023-03-31T04:43:42.189Z,98189.19
2023-03-31T04:44:44.417Z,98191.59
2023-03-31T04:45:49.935Z,98184.91
2023-03-31T04:46:52.156Z,98183.31
2023-03-31T04:47:54.403Z,98182.13
2023-03-31T04:48:56.999Z,98188.88
2023-03-31T04:49:59.198Z,98180.91
2023-03-31T04:51:01.432Z,98186.44
2023-03-31T04:52:03.792Z,98180.41
2023-03-31T04:53:06.731Z,98185.09
2023-03-31T04:54:08.923Z,98180.63
2023-03-31T04:55:11.292Z,98183.31
2023-03-31T04:56:13.513Z,98190.41
2023-03-31T04:57:15.959Z,98186.69
2023-03-31T04:58:18.185Z,98200.06
2023-03-31T04:59:20.316Z,98205.28
2023-03-31T05:00:23.178Z,98209.75
2023-03-31T05:01:25.448Z,98205.53
2023-03-31T05:02:27.745Z,98208.34
2023-03-31T05:03:30.222Z,98208.44
2023-03-31T05:04:32.568Z,98198.34
2023-03-31T05:05:34.758Z,98192.94
2023-03-31T05:06:36.896Z,98204.16
2023-03-31T05:07:39.777Z,98206.22
2023-03-31T05:08:42.517Z,98203.13
2023-03-31T05:09:45.150Z,98200.97
2023-03-31T05:10:47.296Z,98191.38
2023-03-31T05:11:49.445Z,98212.38
2023-03-31T05:12:51.613Z,98201.31
2023-03-31T05:13:53.746Z,98199.72
2023-03-31T05:14:55.981Z,98216.44
2023-03-31T05:15:58.310Z,98211.78
2023-03-31T05:17:01.111Z,98214.09
2023-03-31T05:18:03.408Z,98216.38
2023-03-31T05:19:05.797Z,98220.03
2023-03-31T05:20:09.474Z,98223.88
2023-03-31T05:21:17.343Z,98221.88
2023-03-31T05:22:20.618Z,98219.16
2023-03-31T05:23:22.808Z,98223.69
2023-03-31T05:24:25.241Z,98216.47
2023-03-31T05:25:32.617Z,98217.31
2023-03-31T05:26:34.869Z,98213.94
2023-03-31T05:27:37.808Z,98213.47
2023-03-31T05:28:40.322Z,98205.41
2023-03-31T05:29:42.532Z,98199.06
2023-03-31T05:30:44.717Z,98191.53
2023-03-31T05:31:47.460Z,98188.72
2023-03-31T05:32:49.705Z,98186.44
2023-03-31T05:33:51.979Z,98181.19
2023-03-31T05:34:57.723Z,98174.44
2023-03-31T05:36:03.113Z,98164.81
2023-03-31T05:37:05.528Z,98167.34
2023-03-31T05:38:07.724Z,98159.56
2023-03-31T05:39:10.029Z,98149.28
2023-03-31T05:40:12.470Z,98143.63
2023-03-31T05:41:16.796Z,98143.16
2023-03-31T05:42:19.724Z,98133.41
2023-03-31T05:43:21.971Z,98139.13
2023-03-31T05:44:24.106Z,98144.28
2023-03-31T05:45:26.344Z,98134.75
2023-03-31T05:46:28.636Z,98124.19
2023-03-31T05:47:30.812Z,98132.47
2023-03-31T05:48:32.999Z,98138.44
2023-03-31T05:49:35.271Z,98144.28
2023-03-31T05:50:37.497Z,98147.13
2023-03-31T05:51:39.803Z,98143.22
2023-03-31T05:52:42.082Z,98134.94
2023-03-31T05:53:44.409Z,98140.19
2023-03-31T05:54:46.697Z,98140.69
2023-03-31T05:55:48.939Z,98135.72
2023-03-31T05:56:51.136Z,98139.84
2023-03-31T05:57:54.489Z,98131.31
2023-03-31T05:58:57.627Z,98137.50
2023-03-31T06:00:00.518Z,98127.84
2023-03-31T06:01:16.376Z,98122.69
2023-03-31T06:02:20.355Z,98113.97
2023-03-31T06:03:22.768Z,98115.00
2023-03-31T06:04:25.016Z,98104.28
2023-03-31T06:05:27.541Z,98106.09
2023-03-31T06:06:29.768Z,98098.09
2023-03-31T06:07:31.920Z,98094.19
2023-03-31T06:08:35.664Z,98093.16
2023-03-31T06:09:37.798Z,98100.78
2023-03-31T06:10:42.775Z,98100.22
2023-03-31T06:11:45.091Z,98097.28
2023-03-31T06:12:47.552Z,98099.88
2023-03-31T06:13:50.051Z,98100.19
2023-03-31T06:14:52.632Z,98103.38
2023-03-31T06:15:59.600Z,98099.06
2023-03-31T06:17:01.856Z,98082.47
2023-03-31T06:18:04.217Z,98088.66
2023-03-31T06:19:06.598Z,98092.63
2023-03-31T06:20:20.440Z,98096.44
2023-03-31T06:21:29.918Z,98088.50
2023-03-31T06:22:32.745Z,98078.94
2023-03-31T06:23:35.061Z,98076.31
2023-03-31T06:24:37.323Z,98085.06
2023-03-31T06:25:50.321Z,98089.53
2023-03-31T06:26:54.120Z,98074.66
2023-03-31T06:27:56.316Z,98078.09
2023-03-31T06:28:58.533Z,98090.94
2023-03-31T06:30:00.874Z,98085.97
2023-03-31T06:31:09.312Z,98067.13
2023-03-31T06:32:12.075Z,98072.06
2023-03-31T06:33:14.404Z,98081.84
2023-03-31T06:34:17.829Z,98067.69
2023-03-31T06:35:20.799Z,98044.38
2023-03-31T06:36:23.140Z,98034.69
2023-03-31T06:37:25.522Z,98046.22
2023-03-31T06:38:28.335Z,98054.69
2023-03-31T06:39:30.714Z,98046.06
2023-03-31T06:40:33.853Z,98044.06
2023-03-31T06:41:36.040Z,98045.69
2023-03-31T06:42:38.267Z,98036.41
2023-03-31T06:43:40.977Z,98023.47
2023-03-31T06:44:43.262Z,98028.44
2023-03-31T06:45:45.440Z,98047.38
2023-03-31T06:46:47.623Z,98034.16
2023-03-31T06:47:49.841Z,98042.03
2023-03-31T06:48:53.276Z,98042.59
2023-03-31T06:49:55.543Z,98047.84
2023-03-31T06:51:02.403Z,98042.97
2023-03-31T06:52:04.982Z,98033.59
2023-03-31T06:53:08.626Z,98040.34
2023-03-31T06:54:11.239Z,98041.66
2023-03-31T06:55:15.430Z,98041.78
2023-03-31T06:56:17.603Z,98045.69
2023-03-31T06:57:20.837Z,98051.69
2023-03-31T06:58:23.143Z,98049.81
2023-03-31T06:59:25.426Z,98064.91
2023-03-31T07:00:27.792Z,98042.97
2023-03-31T07:01:31.481Z,98050.38
2023-03-31T07:02:33.815Z,98028.81
2023-03-31T07:03:36.264Z,98026.28
2023-03-31T07:04:38.504Z,98007.25
2023-03-31T07:05:40.957Z,97992.19
2023-03-31T07:06:43.191Z,97954.66
2023-03-31T07:07:46.501Z,97936.88
2023-03-31T07:08:48.783Z,97950.91
2023-03-31T07:09:51.015Z,97977.25
2023-03-31T07:10:58.767Z,97972.97
2023-03-31T07:12:01.628Z,97988.94
2023-03-31T07:13:05.624Z,97993.34
2023-03-31T07:14:07.991Z,97984.41
2023-03-31T07:15:10.485Z,97986.66
2023-03-31T07:16:14.202Z,97977.53
2023-03-31T07:17:16.524Z,97978.13
2023-03-31T07:18:19.952Z,97983.47
2023-03-31T07:19:22.857Z,98005.78
2023-03-31T07:20:25.813Z,98011.16
2023-03-31T07:21:28.187Z,98003.16
2023-03-31T07:22:30.429Z,97996.84
2023-03-31T07:23:32.591Z,97997.59
2023-03-31T07:24:34.813Z,97992.16
2023-03-31T07:25:37.029Z,97998.47
2023-03-31T07:26:39.197Z,98004.41
2023-03-31T07:27:41.914Z,98002.56
2023-03-31T07:28:44.086Z,97998.25
2023-03-31T07:29:46.342Z,97995.44
2023-03-31T07:30:48.557Z,97989.31
2023-03-31T07:31:50.890Z,97987.88
2023-03-31T07:32:54.546Z,97992.84
2023-03-31T07:33:57.157Z,97985.66
2023-03-31T07:35:00.285Z,97987.72
2023-03-31T07:36:12.575Z,97997.25
2023-03-31T07:37:16.075Z,97992.06
2023-03-31T07:38:18.351Z,97988.97
2023-03-31T07:39:22.566Z,97994.16
2023-03-31T07:40:27.492Z,97990.75
2023-03-31T07:41:29.990Z,97988.97
2023-03-31T07:42:33.548Z,97997.69
2023-03-31T07:43:35.824Z,97980.47
2023-03-31T07:44:38.375Z,97999.41
2023-03-31T07:45:40.943Z,97987.03
2023-03-31T07:46:43.436Z,98013.75
2023-03-31T07:47:46.672Z,98010.25
2023-03-31T07:48:49.879Z,98003.84
2023-03-31T07:49:52.106Z,97999.41
2023-03-31T07:50:54.740Z,98008.78
2023-03-31T07:52:04.798Z,98001.81
2023-03-31T07:53:07.471Z,98010.66
2023-03-31T07:54:09.676Z,98002.81
2023-03-31T07:55:12.461Z,98003.59
2023-03-31T07:56:16.884Z,97998.34
2023-03-31T07:57:19.422Z,98009.25
2023-03-31T07:58:21.809Z,98007.13
2023-03-31T07:59:24.020Z,98003.31
2023-03-31T08:00:26.361Z,98013.00
2023-03-31T08:01:29.896Z,97998.72
2023-03-31T08:02:32.628Z,97996.06
2023-03-31T08:03:35.485Z,98005.19
2023-03-31T08:04:38.248Z,98013.03
2023-03-31T08:05:40.641Z,98003.53
2023-03-31T08:06:44.275Z,98010.72
2023-03-31T08:07:48.970Z,98015.09
2023-03-31T08:08:51.729Z,98002.44
2023-03-31T08:09:54.021Z,98000.56
2023-03-31T08:10:56.390Z,97997.22
2023-03-31T08:11:58.961Z,97986.41
2023-03-31T08:13:01.233Z,97996.56
2023-03-31T08:14:03.496Z,97980.91
2023-03-31T08:15:09.206Z,97993.31
2023-03-31T08:16:11.557Z,97988.38
2023-03-31T08:17:14.046Z,97983.63
2023-03-31T08:18:19.971Z,97994.75
2023-03-31T08:19:22.624Z,97990.50
2023-03-31T08:20:25.010Z,98007.59
2023-03-31T08:21:28.492Z,97992.09
2023-03-31T08:22:30.983Z,97990.66
2023-03-31T08:23:33.277Z,97984.75
2023-03-31T08:24:35.598Z,97990.63
2023-03-31T08:25:38.504Z,97972.38
2023-03-31T08:26:43.029Z,97977.56
2023-03-31T08:27:46.702Z,97985.88
2023-03-31T08:28:49.241Z,97980.97
2023-03-31T08:29:51.762Z,97973.88
2023-03-31T08:30:54.190Z,97977.19
2023-03-31T08:31:56.935Z,97986.16
2023-03-31T08:32:59.227Z,97982.69
2023-03-31T08:34:02.749Z,97982.25
2023-03-31T08:35:05.553Z,97988.72
2023-03-31T08:36:10.580Z,97984.41
2023-03-31T08:37:13.066Z,97981.19
2023-03-31T08:38:15.369Z,97979.63
2023-03-31T08:39:18.164Z,97979.13
2023-03-31T08:40:24.061Z,97980.69
2023-03-31T08:41:32.169Z,97995.00
2023-03-31T08:42:43.827Z,97983.09
2023-03-31T08:43:48.191Z,97990.50
2023-03-31T08:45:01.888Z,97979.97
2023-03-31T08:46:04.975Z,97981.38
2023-03-31T08:47:15.896Z,97982.97
2023-03-31T08:48:25.676Z,97974.81
2023-03-31T08:49:39.387Z,97978.47
2023-03-31T08:50:47.628Z,97973.84
2023-03-31T08:51:54.678Z,97983.81
2023-03-31T08:53:07.247Z,97984.13
2023-03-31T08:54:33.229Z,97983.09
2023-03-31T08:55:48.937Z,97983.09
2023-03-31T08:56:51.946Z,97971.44
2023-03-31T08:58:01.846Z,97969.13
2023-03-31T08:59:04.125Z,97994.91
2023-03-31T09:00:11.018Z,97967.88
2023-03-31T09:01:19.790Z,97977.50
2023-03-31T09:02:48.681Z,97990.56
2023-03-31T09:04:12.489Z,97972.75
2023-03-31T09:05:33.402Z,97971.75
2023-03-31T09:06:46.476Z,97952.34
2023-03-31T09:08:19.386Z,97956.16
2023-03-31T09:09:44.473Z,97958.59
2023-03-31T09:10:59.857Z,97962.88
2023-03-31T09:12:16.400Z,97956.19
2023-03-31T09:13:46.745Z,97952.91
2023-03-31T09:14:58.989Z,97948.38
2023-03-31T09:16:15.743Z,97961.28
2023-03-31T09:17:18.881Z,97937.72
2023-03-31T09:18:35.769Z,97950.53
2023-03-31T09:20:01.711Z,97949.56
2023-03-31T09:21:15.841Z,97953.47
2023-03-31T09:22:26.782Z,97960.34
2023-03-31T09:23:42.996Z,97951.00
2023-03-31T09:25:10.589Z,97956.19
2023-03-31T09:26:45.182Z,97947.41
2023-03-31T09:27:50.460Z,97950.72
2023-03-31T09:28:57.624Z,97941.28
2023-03-31T09:30:24.891Z,97946.47
2023-03-31T09:31:27.253Z,97943.94
2023-03-31T09:32:31.981Z,97953.34
2023-03-31T09:33:34.708Z,97933.91
2023-03-31T09:34:37.416Z,97931.44
2023-03-31T09:35:39.628Z,97925.56
2023-03-31T09:36:42.832Z,97941.03
2023-03-31T09:37:45.106Z,97920.81
2023-03-31T09:38:47.694Z,97940.47
2023-03-31T09:39:49.861Z,97935.78
2023-03-31T09:40:52.120Z,97943.53
2023-03-31T09:41:55.752Z,97931.97
2023-03-31T09:43:06.650Z,97929.25
2023-03-31T09:44:22.837Z,97928.59
2023-03-31T09:45:25.412Z,97932.53
2023-03-31T09:46:34.668Z,97938.88
2023-03-31T09:47:46.363Z,97929.63
2023-03-31T09:49:14.296Z,97939.28
2023-03-31T09:50:17.362Z,97943.78
2023-03-31T09:51:27.153Z,97948.84
2023-03-31T09:52:34.984Z,97930.75
2023-03-31T09:53:53.598Z,97951.50
2023-03-31T09:54:58.170Z,97955.22
2023-03-31T09:56:06.306Z,97920.84
2023-03-31T09:57:24.078Z,97947.69
2023-03-31T09:58:26.343Z,97942.22
2023-03-31T09:59:35.606Z,97956.09
2023-03-31T10:00:42.208Z,97950.91
2023-03-31T10:01:46.246Z,97948.28
2023-03-31T10:03:04.061Z,97939.09
2023-03-31T10:04:09.156Z,97949.06
2023-03-31T10:05:33.103Z,97942.03
2023-03-31T10:06:42.073Z,97939.03
2023-03-31T10:07:44.417Z,97944.97
2023-03-31T10:08:52.277Z,97951.66
2023-03-31T10:09:55.607Z,97950.09
2023-03-31T10:11:09.168Z,97945.84
2023-03-31T10:12:24.158Z,97929.72
2023-03-31T10:13:43.261Z,97919.44
2023-03-31T10:14:48.390Z,97928.88
2023-03-31T10:15:55.581Z,97921.69
2023-03-31T10:16:58.697Z,97923.50
2023-03-31T10:18:01.414Z,97923.47
2023-03-31T10:19:25.978Z,97925.31
2023-03-31T10:20:39.155Z,97939.31
2023-03-31T10:21:46.161Z,97927.47
2023-03-31T10:22:48.395Z,97919.78
2023-03-31T10:23:51.376Z,97935.63
2023-03-31T10:24:53.887Z,97941.00
2023-03-31T10:25:56.547Z,97931.41
2023-03-31T10:26:58.876Z,97928.63
2023-03-31T10:28:02.246Z,97936.16
2023-03-31T10:29:12.856Z,97916.31
2023-03-31T10:30:22.005Z,97920.41
2023-03-31T10:31:26.867Z,97916.66
2023-03-31T10:32:34.747Z,97927.44
2023-03-31T10:33:45.035Z,97917.34
2023-03-31T10:34:47.603Z,97909.03
2023-03-31T10:36:02.904Z,97918.22
2023-03-31T10:37:07.347Z,97896.88
2023-03-31T10:38:17.421Z,97907.25
2023-03-31T10:39:20.537Z,97906.34
2023-03-31T10:40:27.274Z,97898.63
2023-03-31T10:41:30.837Z,97898.34
2023-03-31T10:42:34.157Z,97892.72
2023-03-31T10:43:43.214Z,97887.44
2023-03-31T10:44:46.024Z,97871.41
2023-03-31T10:45:51.172Z,97870.47
2023-03-31T10:46:53.530Z,97881.06
2023-03-31T10:47:58.300Z,97870.97
2023-03-31T10:49:00.519Z,97860.22
2023-03-31T10:50:04.966Z,97863.97
2023-03-31T10:51:27.481Z,97868.72
2023-03-31T10:52:29.725Z,97874.25
2023-03-31T10:54:02.596Z,97877.22
2023-03-31T10:55:13.208Z,97868.03
2023-03-31T10:56:44.864Z,97878.13
2023-03-31T10:57:56.656Z,97883.22
2023-03-31T10:59:17.351Z,97885.91
2023-03-31T11:00:55.066Z,97910.00
2023-03-31T11:02:20.138Z,97928.59
2023-03-31T11:03:45.362Z,97956.00
2023-03-31T11:05:25.352Z,97929.78
2023-03-31T11:06:47.972Z,97935.75
2023-03-31T11:08:04.047Z,97948.69
2023-03-31T11:09:33.072Z,97954.09
2023-03-31T11:11:12.183Z,97967.84
2023-03-31T11:12:24.615Z,97965.78
2023-03-31T11:13:33.714Z,97968.09
2023-03-31T11:14:50.855Z,97969.66
2023-03-31T11:16:03.330Z,97981.78
2023-03-31T11:17:21.969Z,97978.66
2023-03-31T11:18:36.071Z,97978.88
2023-03-31T11:20:03.085Z,97998.94
2023-03-31T11:21:27.859Z,97980.88
2023-03-31T11:22:41.754Z,97983.41
2023-03-31T11:24:06.244Z,97972.38
2023-03-31T11:25:29.780Z,97974.94
2023-03-31T11:26:50.220Z,97963.41
2023-03-31T11:28:04.579Z,97971.19
2023-03-31T11:29:23.322Z,97953.53
2023-03-31T11:30:33.717Z,97938.47
2023-03-31T11:32:03.825Z,97945.19
2023-03-31T11:33:12.024Z,97933.09
2023-03-31T11:34:33.037Z,97949.63
2023-03-31T11:35:54.373Z,97931.03
2023-03-31T11:37:15.373Z,97931.03
2023-03-31T11:38:44.994Z,97937.28
2023-03-31T11:39:59.229Z,97941.91
2023-03-31T11:41:27.851Z,97953.56
2023-03-31T11:42:39.157Z,97948.63
2023-03-31T11:43:48.781Z,97952.50
2023-03-31T11:44:56.421Z,97956.53
2023-03-31T11:46:26.220Z,97952.59
2023-03-31T11:47:33.860Z,97957.63
2023-03-31T11:48:51.084Z,97952.84
2023-03-31T11:49:59.117Z,97962.41
2023-03-31T11:51:03.341Z,97957.97
2023-03-31T11:52:18.193Z,97946.66
2023-03-31T11:53:27.212Z,97960.31
2023-03-31T11:54:45.785Z,97946.97
2023-03-31T11:55:51.831Z,97940.81
2023-03-31T11:56:56.594Z,97936.47
2023-03-31T11:58:15.522Z,97934.13
2023-03-31T11:59:20.380Z,97930.25
2023-03-31T12:00:30.390Z,97936.09
2023-03-31T12:01:56.987Z,97924.22
2023-03-31T12:03:24.959Z,97919.19
2023-03-31T12:04:45.790Z,97910.53
2023-03-31T12:05:52.141Z,97902.16
2023-03-31T12:07:02.482Z,97914.13
2023-03-31T12:08:23.095Z,97916.91
2023-03-31T12:10:06.134Z,97906.13
2023-03-31T12:11:22.227Z,97902.53
2023-03-31T12:12:30.057Z,97901.38
2023-03-31T12:13:52.572Z,97906.03
2023-03-31T12:15:16.811Z,97906.25
2023-03-31T12:16:23.730Z,97941.31
2023-03-31T12:17:27.464Z,97910.22
2023-03-31T12:18:36.890Z,97903.13
2023-03-31T12:20:10.416Z,97914.66
2023-03-31T12:21:12.582Z,97914.06
2023-03-31T12:22:23.959Z,97924.03
2023-03-31T12:23:33.779Z,97914.28
2023-03-31T12:24:36.775Z,97915.34
2023-03-31T12:25:52.115Z,97918.88
2023-03-31T12:27:06.242Z,97905.50
2023-03-31T12:28:10.411Z,97908.63
2023-03-31T12:29:38.569Z,97904.38
2023-03-31T12:30:44.476Z,97908.25
2023-03-31T12:31:48.876Z,97912.84
2023-03-31T12:32:58.986Z,97900.50
2023-03-31T12:34:06.287Z,97897.47
2023-03-31T12:35:22.665Z,97887.22
2023-03-31T12:36:37.599Z,97871.91
2023-03-31T12:37:57.749Z,97878.94
2023-03-31T12:39:25.050Z,97874.81
2023-03-31T12:40:36.441Z,97887.56
2023-03-31T12:41:47.403Z,97889.69
2023-03-31T12:43:01.687Z,97895.50
2023-03-31T12:44:34.800Z,97886.72
2023-03-31T12:45:42.798Z,97868.78
2023-03-31T12:46:59.639Z,97865.72
2023-03-31T12:48:26.841Z,97860.53
2023-03-31T12:49:50.502Z,97868.28
2023-03-31T12:51:04.896Z,97853.34
2023-03-31T12:52:11.806Z,97850.22
2023-03-31T12:53:42.237Z,97879.84
2023-03-31T12:55:16.980Z,97861.75
2023-03-31T12:56:19.275Z,97867.38
2023-03-31T12:57:24.046Z,97878.66
2023-03-31T12:58:34.663Z,97879.63
2023-03-31T12:59:39.011Z,97862.09
2023-03-31T13:01:07.732Z,97865.34
2023-03-31T13:02:16.433Z,97862.09
2023-03-31T13:03:47.726Z,97856.56
2023-03-31T13:04:50.869Z,97843.03
2023-03-31T13:05:53.018Z,97852.38
2023-03-31T13:06:59.557Z,97840.66
2023-03-31T13:08:02.436Z,97828.44
2023-03-31T13:09:27.620Z,97839.34
2023-03-31T13:10:31.158Z,97808.09
2023-03-31T13:11:33.430Z,97830.31
2023-03-31T13:12:36.030Z,97828.66
2023-03-31T13:14:02.365Z,97828.41
2023-03-31T13:15:05.500Z,97837.38
2023-03-31T13:16:07.666Z,97832.34
2023-03-31T13:17:29.691Z,97838.72
2023-03-31T13:18:34.024Z,97840.09
2023-03-31T13:19:37.593Z,97834.44
2023-03-31T13:20:41.987Z,97839.25
2023-03-31T13:21:58.793Z,97834.19
2023-03-31T13:23:17.383Z,97843.34
2023-03-31T13:24:25.982Z,97841.28
2023-03-31T13:25:30.946Z,97836.66